Time;durP1;ratioP1;P1;durP2;ratioP2;P2;SDS_P1;SDS_P2;PMS_P1;PMS_P2;Temp;Humidity;BMP_temperature;BMP_pressure;BME280_temperature;BME280_humidity;BME280_pressure;Samples;Min_cycle;Max_cycle;Signal;HPM_P1;HPM_P2
2022/05/02 00:02:18;;;;;;;4.87;3.30;;;11.30;50.30;;;;;;5034505;28;20170;-82
2022/05/02 00:04:44;;;;;;;6.95;3.33;;;11.30;50.50;;;;;;5038156;28;20028;-82
2022/05/02 00:07:10;;;;;;;5.17;3.27;;;11.20;50.50;;;;;;5036143;28;20112;-82
2022/05/02 00:09:35;;;;;;;5.22;3.30;;;11.20;50.60;;;;;;5057641;28;20051;-82
2022/05/02 00:12:01;;;;;;;5.93;3.17;;;11.20;50.70;;;;;;5060523;28;20036;-82
2022/05/02 00:14:27;;;;;;;4.25;2.85;;;11.10;50.80;;;;;;5034612;28;20283;-82
2022/05/02 00:16:52;;;;;;;5.10;3.30;;;11.00;50.70;;;;;;5042473;28;20041;-82
2022/05/02 00:19:18;;;;;;;5.65;3.13;;;11.00;50.80;;;;;;5053804;28;20047;-82
2022/05/02 00:21:44;;;;;;;5.10;3.07;;;11.00;50.90;;;;;;5044229;28;20082;-82
2022/05/02 00:24:09;;;;;;;5.30;3.53;;;10.90;50.90;;;;;;5035939;28;20039;-82
2022/05/02 00:26:35;;;;;;;5.40;3.30;;;10.90;51.10;;;;;;5059670;28;20044;-82
2022/05/02 00:29:01;;;;;;;5.95;3.60;;;10.90;51.30;;;;;;5042014;28;20024;-82
2022/05/02 00:31:27;;;;;;;4.90;3.38;;;10.80;51.30;;;;;;5022960;28;20040;-82
2022/05/02 00:33:52;;;;;;;5.63;3.50;;;10.80;51.40;;;;;;5058429;28;20059;-82
2022/05/02 00:36:18;;;;;;;5.22;3.25;;;10.70;51.60;;;;;;5035892;28;20028;-82
2022/05/02 00:38:44;;;;;;;5.13;3.10;;;10.70;51.70;;;;;;5055356;28;20029;-82
2022/05/02 00:41:11;;;;;;;5.07;3.38;;;10.70;51.80;;;;;;5044555;28;20024;-82
2022/05/02 00:43:36;;;;;;;6.55;3.13;;;10.60;51.90;;;;;;5051112;28;20093;-82
2022/05/02 00:46:02;;;;;;;6.87;3.33;;;10.60;51.90;;;;;;5040517;28;20472;-82
2022/05/02 00:48:31;;;;;;;5.13;3.20;;;10.50;52.40;;;;;;5028818;28;20465;-82
2022/05/02 00:50:56;;;;;;;5.13;3.27;;;10.50;52.10;;;;;;5038670;28;20362;-82
2022/05/02 00:53:24;;;;;;;5.88;3.60;;;10.50;52.10;;;;;;5052127;28;20427;-82
2022/05/02 00:55:51;;;;;;;5.40;3.40;;;10.50;52.40;;;;;;5059930;28;20539;-82
2022/05/02 00:58:17;;;;;;;6.23;3.50;;;10.40;52.40;;;;;;5053278;28;20032;-82
2022/05/02 01:00:43;;;;;;;5.95;3.35;;;10.40;52.30;;;;;;5042355;28;20284;-82
2022/05/02 01:03:11;;;;;;;4.95;3.30;;;10.30;52.40;;;;;;5022498;28;20392;-82
2022/05/02 01:08:30;;;;;;;5.75;3.45;;;10.30;53.10;;;;;;5044006;28;20028;-82
2022/05/02 01:10:57;;;;;;;5.03;3.50;;;10.30;52.80;;;;;;5053563;28;20476;-82
2022/05/02 01:13:39;;;;;;;5.53;3.70;;;10.20;52.70;;;;;;5055909;28;20024;-82
2022/05/02 01:16:25;;;;;;;6.07;3.83;;;10.20;54.20;;;;;;5054485;28;20487;-82
2022/05/02 01:18:53;;;;;;;5.70;3.60;;;10.20;53.90;;;;;;5046451;28;20064;-82
2022/05/02 01:21:21;;;;;;;6.75;3.95;;;10.10;53.10;;;;;;5036744;28;20238;-81
2022/05/02 01:23:48;;;;;;;5.83;3.73;;;10.10;53.20;;;;;;5031156;28;20468;-82
2022/05/02 01:26:14;;;;;;;5.68;3.58;;;10.10;53.30;;;;;;5051959;28;20240;-82
2022/05/02 01:28:45;;;;;;;5.30;3.80;;;10.10;53.40;;;;;;5072153;28;20036;-82
2022/05/02 01:31:12;;;;;;;5.63;3.97;;;10.00;53.40;;;;;;5041365;28;20147;-81
2022/05/02 01:33:38;;;;;;;6.68;3.90;;;10.00;53.50;;;;;;5036010;28;20123;-81
2022/05/02 01:36:04;;;;;;;5.43;3.57;;;9.90;54.10;;;;;;5055515;28;20471;-82
2022/05/02 01:38:29;;;;;;;5.60;3.65;;;10.00;53.60;;;;;;5048462;28;20044;-81
2022/05/02 01:40:55;;;;;;;5.87;3.80;;;9.90;53.60;;;;;;5030913;28;20086;-82
2022/05/02 01:43:21;;;;;;;6.32;3.97;;;9.90;53.60;;;;;;5040745;28;20028;-82
2022/05/02 01:45:47;;;;;;;6.20;3.80;;;9.90;53.60;;;;;;5029648;28;20028;-81
2022/05/02 01:48:12;;;;;;;6.93;4.10;;;9.80;53.60;;;;;;5018313;28;20628;-81
2022/05/02 01:50:38;;;;;;;6.27;3.93;;;9.80;53.90;;;;;;5051057;28;20040;-82
2022/05/02 01:53:03;;;;;;;6.00;4.07;;;9.80;53.90;;;;;;5026946;28;20063;-81
2022/05/02 01:55:29;;;;;;;6.80;4.13;;;9.80;54.00;;;;;;5038336;28;20094;-81
2022/05/02 01:57:55;;;;;;;6.70;3.92;;;9.80;54.10;;;;;;5070900;28;20021;-81
2022/05/02 02:00:20;;;;;;;6.67;4.20;;;9.70;54.10;;;;;;5029935;28;20291;-81
2022/05/02 02:02:46;;;;;;;6.85;3.80;;;9.70;54.20;;;;;;5073213;28;20021;-82
2022/05/02 02:07:56;;;;;;;6.53;4.13;;;9.70;54.40;;;;;;5051310;28;20798;-82
2022/05/02 02:10:22;;;;;;;6.68;4.50;;;9.60;54.40;;;;;;5046456;28;20324;-81
2022/05/02 02:12:47;;;;;;;7.90;4.50;;;9.60;54.50;;;;;;5043522;28;20159;-82
2022/05/02 02:15:14;;;;;;;7.07;4.20;;;9.60;54.70;;;;;;5054393;28;20149;-82
2022/05/02 02:17:43;;;;;;;7.95;4.50;;;9.60;54.80;;;;;;5046530;28;20401;-81
2022/05/02 02:20:10;;;;;;;6.87;4.47;;;9.60;55.40;;;;;;5037843;28;20423;-81
2022/05/02 02:22:37;;;;;;;7.70;4.28;;;9.60;55.10;;;;;;5037212;28;20024;-82
2022/05/02 02:25:04;;;;;;;6.72;4.60;;;9.60;55.20;;;;;;5024244;28;20033;-81
2022/05/02 02:27:31;;;;;;;6.53;4.40;;;9.60;55.40;;;;;;5046128;28;20080;-82
2022/05/02 02:29:57;;;;;;;7.55;5.10;;;9.60;55.50;;;;;;5060300;28;20024;-82
2022/05/02 02:32:22;;;;;;;7.33;4.63;;;9.60;55.50;;;;;;5035946;28;20008;-82
2022/05/02 02:34:48;;;;;;;7.22;4.90;;;9.50;55.60;;;;;;5054875;28;20027;-81
2022/05/02 02:37:15;;;;;;;7.57;4.73;;;9.50;55.60;;;;;;5022594;28;22594;-81
2022/05/02 02:39:41;;;;;;;8.75;5.00;;;9.60;55.90;;;;;;5040524;28;20029;-82
2022/05/02 02:42:07;;;;;;;8.73;5.15;;;9.60;55.90;;;;;;5027944;28;20670;-81
2022/05/02 02:44:33;;;;;;;7.70;4.63;;;9.60;56.00;;;;;;5043441;28;20028;-81
2022/05/02 02:46:58;;;;;;;7.13;4.57;;;9.60;56.10;;;;;;5041901;28;20833;-81
2022/05/02 02:49:24;;;;;;;8.77;4.80;;;9.50;56.10;;;;;;5059133;28;20075;-81
2022/05/02 02:51:49;;;;;;;7.40;4.78;;;9.60;56.20;;;;;;5038303;28;20036;-81
2022/05/02 02:54:15;;;;;;;7.10;4.53;;;9.60;56.30;;;;;;5032189;28;20427;-81
2022/05/02 02:56:41;;;;;;;6.32;4.38;;;9.50;56.40;;;;;;5053176;28;20052;-81
2022/05/02 02:59:06;;;;;;;8.00;5.07;;;9.60;56.50;;;;;;5047600;28;20409;-81
2022/05/02 03:01:32;;;;;;;8.10;4.93;;;9.60;56.50;;;;;;5043198;28;20030;-81
2022/05/02 03:03:58;;;;;;;7.47;4.75;;;9.50;56.50;;;;;;5033994;28;20067;-81
2022/05/02 03:06:24;;;;;;;7.70;4.45;;;9.60;56.50;;;;;;5054657;28;20102;-81
2022/05/02 03:08:50;;;;;;;6.60;4.30;;;9.60;56.60;;;;;;5037016;28;20036;-81
2022/05/02 03:11:16;;;;;;;8.27;5.00;;;9.50;56.50;;;;;;5049695;28;20049;-81
2022/05/02 03:13:42;;;;;;;8.40;4.78;;;9.50;56.60;;;;;;5045454;28;20467;-81
2022/05/02 03:16:10;;;;;;;7.93;5.07;;;9.50;56.60;;;;;;5055298;28;20187;-81
2022/05/02 03:18:35;;;;;;;7.43;4.50;;;9.40;56.70;;;;;;5043006;28;20025;-81
2022/05/02 03:21:01;;;;;;;6.57;4.27;;;9.40;56.80;;;;;;5047569;28;20054;-81
2022/05/02 03:23:27;;;;;;;8.82;4.90;;;9.40;56.90;;;;;;5023695;28;20060;-81
2022/05/02 03:25:52;;;;;;;7.43;4.43;;;9.40;57.00;;;;;;5032141;28;20123;-81
2022/05/02 03:28:18;;;;;;;8.10;4.53;;;9.40;57.10;;;;;;5054739;28;20047;-81
2022/05/02 03:30:43;;;;;;;7.00;4.87;;;9.40;57.10;;;;;;5042232;28;20043;-82
2022/05/02 03:33:09;;;;;;;6.63;4.10;;;9.40;57.00;;;;;;5052591;28;20722;-82
2022/05/02 03:35:36;;;;;;;7.65;4.57;;;9.40;57.00;;;;;;5058031;28;20055;-82
2022/05/02 03:38:01;;;;;;;8.07;4.95;;;9.30;56.90;;;;;;5024451;28;20241;-81
2022/05/02 03:40:27;;;;;;;6.93;4.63;;;9.30;56.90;;;;;;5033532;28;20028;-81
2022/05/02 03:42:53;;;;;;;7.50;4.53;;;9.30;56.90;;;;;;5058394;28;20056;-81
2022/05/02 03:45:19;;;;;;;7.37;4.70;;;9.20;57.00;;;;;;5047814;28;20305;-81
2022/05/02 03:47:45;;;;;;;6.90;4.35;;;9.20;57.20;;;;;;5058051;28;20047;-81
2022/05/02 03:50:10;;;;;;;6.60;4.47;;;9.20;57.20;;;;;;5036044;28;20357;-81
2022/05/02 03:52:36;;;;;;;7.57;4.73;;;9.20;57.20;;;;;;5077613;28;20863;-81
2022/05/02 03:55:03;;;;;;;7.30;4.20;;;9.10;57.20;;;;;;5023766;28;20372;-81
2022/05/02 03:57:28;;;;;;;7.30;4.07;;;9.10;57.30;;;;;;5041682;28;20025;-81
2022/05/02 03:59:54;;;;;;;7.05;3.90;;;9.10;57.30;;;;;;5029750;28;20032;-81
2022/05/02 04:02:20;;;;;;;6.70;4.40;;;9.10;57.30;;;;;;5059962;28;20124;-82
2022/05/02 04:04:45;;;;;;;6.57;4.50;;;9.00;57.90;;;;;;5057575;28;20028;-81
2022/05/02 04:07:11;;;;;;;7.30;4.57;;;9.00;57.20;;;;;;5032220;28;20288;-81
2022/05/02 04:09:36;;;;;;;7.13;4.33;;;8.90;57.20;;;;;;5027387;28;20397;-81
2022/05/02 04:12:02;;;;;;;6.75;4.30;;;8.90;57.30;;;;;;5024607;28;20033;-82
2022/05/02 04:14:28;;;;;;;6.20;4.00;;;8.80;57.30;;;;;;5057402;28;20212;-81
2022/05/02 04:16:53;;;;;;;6.38;4.30;;;8.80;57.40;;;;;;5052951;28;20525;-82
2022/05/02 04:19:19;;;;;;;7.20;4.50;;;8.70;57.50;;;;;;5032146;28;20249;-81
2022/05/02 04:21:45;;;;;;;8.10;5.10;;;8.80;57.60;;;;;;5044424;28;20032;-82
2022/05/02 04:24:10;;;;;;;6.80;4.43;;;8.70;57.60;;;;;;5048357;28;20201;-82
2022/05/02 04:26:36;;;;;;;7.00;4.57;;;8.70;57.60;;;;;;5024526;28;20044;-81
2022/05/02 04:29:02;;;;;;;7.27;4.23;;;8.70;57.70;;;;;;5054883;28;20426;-81
2022/05/02 04:31:28;;;;;;;6.82;4.40;;;8.60;57.80;;;;;;5047886;28;20483;-81
2022/05/02 04:33:54;;;;;;;7.33;4.53;;;8.60;57.90;;;;;;5053943;28;20029;-81
2022/05/02 04:36:19;;;;;;;7.20;4.60;;;8.60;58.00;;;;;;5058697;28;20055;-81
2022/05/02 04:38:45;;;;;;;7.07;4.40;;;8.60;58.10;;;;;;5040004;28;20040;-81
2022/05/02 04:41:13;;;;;;;7.43;4.53;;;8.50;58.20;;;;;;5023044;28;20990;-81
2022/05/02 04:43:41;;;;;;;7.20;4.30;;;8.60;58.20;;;;;;5040861;28;20077;-81
2022/05/02 04:46:09;;;;;;;7.95;4.38;;;8.60;58.40;;;;;;5024420;28;20074;-81
2022/05/02 04:48:35;;;;;;;7.38;4.40;;;8.50;58.30;;;;;;5058857;28;20040;-81
2022/05/02 04:51:01;;;;;;;6.82;4.43;;;8.50;58.40;;;;;;5051550;28;20480;-81
2022/05/02 04:53:26;;;;;;;7.43;4.67;;;8.50;58.50;;;;;;5041917;28;20032;-81
2022/05/02 04:55:52;;;;;;;7.97;4.17;;;8.50;58.60;;;;;;5038723;28;20042;-81
2022/05/02 04:58:17;;;;;;;7.30;4.40;;;8.50;58.70;;;;;;5021360;28;20741;-81
2022/05/02 05:00:44;;;;;;;8.27;4.50;;;8.50;58.70;;;;;;5043575;28;20257;-81
2022/05/02 05:03:10;;;;;;;7.97;4.28;;;8.50;58.80;;;;;;5034615;28;20031;-81
2022/05/02 05:05:35;;;;;;;8.05;4.15;;;8.50;58.80;;;;;;5041557;28;20036;-81
2022/05/02 05:08:01;;;;;;;7.57;4.40;;;8.50;58.90;;;;;;5056640;28;20565;-81
2022/05/02 05:10:27;;;;;;;7.60;4.70;;;8.50;58.80;;;;;;5063480;28;20036;-81
2022/05/02 05:13:03;;;;;;;6.80;4.27;;;8.50;59.00;;;;;;5038362;28;20702;-81
2022/05/02 05:18:53;;;;;;;7.45;4.60;;;8.60;60.50;;;;;;5043847;28;20032;-81
2022/05/02 05:21:40;;;;;;;6.03;4.25;;;8.60;59.30;;;;;;5033781;28;20078;-81
2022/05/02 05:24:41;;;;;;;6.30;4.00;;;8.70;60.40;;;;;;5034948;28;20044;-81
2022/05/02 05:27:45;;;;;;;6.97;4.45;;;8.70;60.80;;;;;;5044801;28;20135;-81
2022/05/02 05:30:10;;;;;;;7.38;4.63;;;8.70;60.90;;;;;;5046041;28;20416;-81
2022/05/02 05:32:57;;;;;;;6.70;4.57;;;8.80;59.50;;;;;;5025007;28;20131;-81
2022/05/02 05:35:47;;;;;;;6.93;4.30;;;8.80;60.00;;;;;;5049133;28;20298;-81
2022/05/02 05:38:26;;;;;;;7.65;4.30;;;8.90;60.90;;;;;;5061233;28;20446;-81
2022/05/02 05:41:11;;;;;;;7.72;4.57;;;8.90;60.20;;;;;;5065102;28;20036;-81
2022/05/02 05:43:42;;;;;;;7.75;4.40;;;9.00;60.60;;;;;;5017391;28;20706;-82
2022/05/02 05:46:38;;;;;;;7.78;4.85;;;9.00;60.00;;;;;;5056856;28;20109;-81
2022/05/02 05:49:40;;;;;;;7.37;4.37;;;9.10;61.20;;;;;;5045691;28;20496;-81
2022/05/02 05:52:15;;;;;;;6.68;4.68;;;9.20;61.90;;;;;;5033078;28;20082;-81
2022/05/02 05:54:56;;;;;;;7.93;4.65;;;9.30;61.10;;;;;;5045657;28;20304;-81
2022/05/02 05:57:49;;;;;;;7.25;4.55;;;9.40;62.10;;;;;;5033178;28;20404;-81
2022/05/02 06:00:16;;;;;;;9.07;5.10;;;9.50;62.60;;;;;;5014210;28;20036;-81
2022/05/02 06:02:41;;;;;;;8.23;5.40;;;9.50;60.80;;;;;;5032195;28;20233;-81
2022/05/02 06:05:08;;;;;;;9.73;5.78;;;9.70;61.00;;;;;;5036497;28;20213;-81
2022/05/02 06:07:35;;;;;;;9.20;4.87;;;9.70;61.00;;;;;;5038347;28;20032;-81
2022/05/02 06:10:03;;;;;;;8.40;5.57;;;9.90;61.20;;;;;;5027194;28;20049;-81
2022/05/02 06:12:31;;;;;;;7.47;4.97;;;10.00;61.70;;;;;;5046686;28;20052;-81
2022/05/02 06:20:45;;;;;;;7.63;5.30;;;10.40;61.50;;;;;;5042022;28;20053;-82
2022/05/02 06:23:13;;;;;;;8.50;5.63;;;10.60;61.60;;;;;;5057140;28;20075;-81
2022/05/02 06:25:40;;;;;;;7.30;5.40;;;10.70;61.60;;;;;;5066641;28;20659;-81
2022/05/02 06:28:07;;;;;;;7.18;4.78;;;10.80;61.40;;;;;;5067239;28;20040;-82
2022/05/02 06:30:36;;;;;;;7.43;4.97;;;10.90;61.40;;;;;;5033469;28;20705;-81
2022/05/02 06:33:09;;;;;;;8.97;5.50;;;11.10;61.60;;;;;;5062971;28;20124;-82
2022/05/02 06:35:58;;;;;;;9.63;5.63;;;11.20;61.60;;;;;;5047096;28;20244;-82
2022/05/02 06:38:37;;;;;;;8.70;4.57;;;11.30;62.40;;;;;;5031159;28;20061;-82
2022/05/02 06:41:37;;;;;;;8.10;5.00;;;11.50;61.80;;;;;;5042082;28;20035;-82
2022/05/02 06:44:02;;;;;;;7.47;4.97;;;11.50;62.30;;;;;;5060281;28;20036;-82
2022/05/02 06:46:46;;;;;;;7.40;4.70;;;11.70;61.00;;;;;;5012991;28;20041;-81
2022/05/02 06:49:13;;;;;;;6.90;4.57;;;11.80;62.00;;;;;;5076645;28;20119;-82
2022/05/02 06:51:42;;;;;;;8.77;5.07;;;12.00;61.10;;;;;;5063268;28;20648;-82
2022/05/02 06:54:07;;;;;;;7.63;4.40;;;12.10;61.30;;;;;;5048854;28;20032;-81
2022/05/02 06:56:33;;;;;;;7.38;4.93;;;12.20;61.30;;;;;;5042259;28;20100;-82
2022/05/02 06:59:09;;;;;;;6.97;4.93;;;12.40;61.40;;;;;;5046021;28;20033;-82
2022/05/02 07:01:53;;;;;;;6.53;4.53;;;12.60;61.70;;;;;;5034075;28;20087;-81
2022/05/02 07:04:24;;;;;;;7.10;4.70;;;12.80;61.90;;;;;;5041192;28;20021;-81
2022/05/02 07:07:42;;;;;;;7.22;4.63;;;12.90;61.30;;;;;;5051498;28;20253;-82
2022/05/02 07:10:23;;;;;;;6.43;4.00;;;13.10;61.80;;;;;;5045179;28;20125;-82
2022/05/02 07:13:15;;;;;;;6.28;4.45;;;13.30;61.00;;;;;;5058341;28;20039;-82
2022/05/02 07:15:43;;;;;;;6.68;4.32;;;13.50;61.60;;;;;;5057935;28;20270;-82
2022/05/02 07:18:37;;;;;;;7.68;4.38;;;13.70;61.10;;;;;;5017173;28;20070;-82
2022/05/02 07:21:23;;;;;;;6.07;4.28;;;14.00;61.80;;;;;;5047384;28;20065;-82
2022/05/02 07:23:59;;;;;;;7.30;4.80;;;14.20;61.70;;;;;;5041340;28;20040;-82
2022/05/02 07:26:27;;;;;;;7.40;4.93;;;14.50;61.50;;;;;;5024803;28;20074;-82
2022/05/02 07:28:58;;;;;;;7.40;4.22;;;14.80;61.80;;;;;;5048365;28;20234;-82
2022/05/02 07:31:25;;;;;;;8.18;4.85;;;15.10;61.60;;;;;;5032906;28;20062;-82
2022/05/02 07:33:53;;;;;;;7.88;4.90;;;15.50;61.20;;;;;;5047665;28;20693;-82
2022/05/02 07:36:22;;;;;;;7.50;4.77;;;15.80;60.90;;;;;;5040859;28;20037;-82
2022/05/02 07:38:53;;;;;;;7.53;5.10;;;16.10;60.60;;;;;;5054365;28;20024;-83
2022/05/02 07:41:27;;;;;;;7.15;5.05;;;16.40;60.30;;;;;;5035233;28;20078;-83
2022/05/02 07:44:07;;;;;;;8.15;5.13;;;16.70;60.40;;;;;;5042812;28;20035;-82
2022/05/02 07:46:37;;;;;;;8.52;5.38;;;17.10;60.00;;;;;;5049175;28;20039;-83
2022/05/02 07:49:04;;;;;;;8.30;5.10;;;17.50;60.20;;;;;;5046976;28;20485;-83
2022/05/02 07:51:31;;;;;;;7.47;5.00;;;17.90;59.40;;;;;;5045789;28;20437;-82
2022/05/02 07:53:59;;;;;;;8.00;5.45;;;18.20;58.80;;;;;;5039888;28;20139;-83
2022/05/02 07:56:31;;;;;;;6.90;5.05;;;18.40;58.30;;;;;;5024040;28;20725;-83
2022/05/02 07:58:58;;;;;;;5.97;4.18;;;18.70;57.80;;;;;;5070971;28;20047;-83
2022/05/02 08:01:25;;;;;;;6.90;4.90;;;19.00;58.50;;;;;;5054028;28;20365;-83
2022/05/02 08:03:52;;;;;;;6.93;4.93;;;19.30;57.50;;;;;;5025305;28;20631;-83
2022/05/02 08:06:47;;;;;;;6.72;5.07;;;19.60;56.80;;;;;;5041844;28;20048;-83
2022/05/02 08:09:31;;;;;;;6.10;4.45;;;19.90;55.50;;;;;;5060063;28;20052;-83
2022/05/02 08:12:19;;;;;;;6.97;5.07;;;20.20;57.20;;;;;;5049049;28;20040;-83
2022/05/02 08:15:23;;;;;;;7.30;4.63;;;20.70;55.70;;;;;;5051076;28;20062;-82
2022/05/02 08:18:30;;;;;;;6.13;4.63;;;21.20;54.90;;;;;;5047432;28;20056;-83
2022/05/02 08:21:02;;;;;;;5.25;4.20;;;21.70;54.70;;;;;;5017372;28;20418;-83
2022/05/02 08:29:47;;;;;;;5.33;3.90;;;23.30;53.00;;;;;;5028709;28;20071;-85
2022/05/02 08:32:37;;;;;;;5.60;4.38;;;23.80;51.90;;;;;;5039062;28;20631;-84
2022/05/02 08:35:03;;;;;;;6.07;4.68;;;24.10;49.20;;;;;;5017192;28;20259;-83
2022/05/02 08:38:16;;;;;;;6.25;4.20;;;24.40;50.50;;;;;;5040329;28;20044;-84
2022/05/02 08:41:04;;;;;;;4.80;4.27;;;24.70;47.60;;;;;;5061339;28;20221;-83
2022/05/02 08:44:06;;;;;;;5.45;4.00;;;25.00;46.60;;;;;;5027514;28;20379;-83
2022/05/02 08:47:00;;;;;;;4.63;3.38;;;25.20;45.80;;;;;;5040758;28;20047;-83
2022/05/02 08:49:36;;;;;;;5.40;4.05;;;25.50;46.60;;;;;;5039951;28;20041;-83
2022/05/02 08:52:29;;;;;;;5.35;3.80;;;25.80;45.80;;;;;;5032758;28;20040;-83
2022/05/02 08:55:25;;;;;;;3.83;3.27;;;26.00;44.50;;;;;;5028380;28;20134;-83
2022/05/02 08:58:08;;;;;;;4.78;3.25;;;26.30;44.90;;;;;;5027239;28;20452;-83
2022/05/02 09:01:22;;;;;;;4.22;3.75;;;26.60;46.00;;;;;;5028142;28;20165;-84
2022/05/02 09:04:19;;;;;;;5.18;3.60;;;26.90;43.00;;;;;;5012542;28;20479;-84
2022/05/02 09:07:27;;;;;;;3.95;3.28;;;27.30;42.60;;;;;;5042371;28;20220;-83
2022/05/02 09:09:57;;;;;;;5.00;3.47;;;27.60;42.20;;;;;;5030855;28;20036;-84
2022/05/02 09:13:00;;;;;;;4.63;3.50;;;27.80;44.40;;;;;;5072641;28;20330;-83
2022/05/02 09:16:19;;;;;;;4.68;4.03;;;28.10;41.10;;;;;;5051007;28;20196;-83
2022/05/02 09:18:57;;;;;;;4.35;3.47;;;28.50;39.40;;;;;;5042959;28;20037;-83
2022/05/02 09:22:01;;;;;;;4.68;3.90;;;28.80;42.30;;;;;;5014628;28;20345;-83
2022/05/02 09:24:47;;;;;;;4.67;3.40;;;29.10;38.80;;;;;;5034056;28;20041;-83
2022/05/02 09:27:39;;;;;;;4.00;3.10;;;29.30;40.50;;;;;;5039316;28;20450;-84
2022/05/02 09:30:19;;;;;;;5.05;3.20;;;29.50;38.90;;;;;;5050519;28;20053;-83
2022/05/02 09:33:00;;;;;;;4.13;3.35;;;29.70;38.80;;;;;;5043891;28;20065;-82
2022/05/02 09:35:33;;;;;;;5.38;3.58;;;29.80;38.60;;;;;;5023165;28;20122;-83
2022/05/02 09:38:15;;;;;;;3.70;3.17;;;30.00;37.60;;;;;;5042209;28;20029;-86
2022/05/02 09:40:41;;;;;;;4.15;3.20;;;30.20;38.80;;;;;;5033051;28;22355;-83
2022/05/02 09:43:25;;;;;;;4.55;3.50;;;30.40;38.10;;;;;;5042847;28;20041;-82
2022/05/02 09:51:39;;;;;;;4.13;3.10;;;30.80;36.20;;;;;;5017579;28;20836;-84
2022/05/02 09:56:37;;;;;;;4.13;2.75;;;30.80;34.40;;;;;;5066059;28;20040;-83
2022/05/02 09:57:17;;;;;;;3.60;2.75;;;30.90;34.70;;;;;;5033675;28;20041;-83
2022/05/02 10:02:50;;;;;;;4.07;3.28;;;31.00;33.10;;;;;;5040906;28;20142;-83
2022/05/02 10:05:29;;;;;;;3.90;3.00;;;31.10;33.60;;;;;;5030156;28;20425;-82
2022/05/02 10:08:02;;;;;;;3.85;3.45;;;31.20;33.10;;;;;;5044019;28;20472;-82
2022/05/02 10:10:51;;;;;;;4.57;3.63;;;31.30;33.00;;;;;;5040238;28;20428;-82
2022/05/02 10:13:34;;;;;;;3.75;3.05;;;31.40;31.60;;;;;;5023643;28;20516;-82
2022/05/02 10:16:14;;;;;;;3.53;3.00;;;31.60;32.20;;;;;;5051095;28;20468;-83
2022/05/02 10:18:56;;;;;;;3.43;2.97;;;31.60;31.40;;;;;;5046740;28;20029;-83
2022/05/02 10:21:47;;;;;;;3.60;2.83;;;31.70;31.90;;;;;;5031627;28;20032;-82
2022/05/02 10:24:34;;;;;;;3.50;2.72;;;31.80;31.20;;;;;;5044332;28;20138;-83
2022/05/02 10:27:23;;;;;;;5.05;3.38;;;31.80;31.20;;;;;;5070349;28;20382;-83
2022/05/02 10:30:06;;;;;;;3.53;2.92;;;31.90;28.00;;;;;;5069272;28;20127;-82
2022/05/02 10:32:53;;;;;;;3.10;2.70;;;31.80;30.10;;;;;;5034027;28;20097;-82
2022/05/02 10:35:21;;;;;;;4.97;2.95;;;31.80;30.10;;;;;;5062470;28;20029;-85
2022/05/02 10:37:58;;;;;;;3.47;3.17;;;31.90;30.80;;;;;;5063935;28;20548;-83
2022/05/02 10:40:30;;;;;;;3.40;3.00;;;31.90;29.00;;;;;;5081658;28;20025;-83
2022/05/02 10:42:57;;;;;;;4.15;3.20;;;31.90;29.80;;;;;;5056254;28;20037;-83
2022/05/02 10:45:27;;;;;;;4.40;3.30;;;31.90;29.50;;;;;;5061722;28;20064;-83
2022/05/02 10:48:11;;;;;;;3.03;2.72;;;31.80;29.20;;;;;;5027422;28;20032;-83
2022/05/02 10:50:37;;;;;;;4.03;3.08;;;31.80;29.30;;;;;;5046056;28;20137;-83
2022/05/02 10:53:14;;;;;;;3.45;3.13;;;31.90;29.70;;;;;;5031952;28;20034;-83
2022/05/02 10:55:51;;;;;;;3.10;2.80;;;32.00;28.80;;;;;;5062760;28;20289;-83
2022/05/02 10:58:17;;;;;;;3.83;2.90;;;32.00;28.60;;;;;;5079451;28;20503;-83
2022/05/02 11:01:17;;;;;;;4.50;3.53;;;32.20;29.70;;;;;;5048403;28;20052;-83
2022/05/02 11:03:55;;;;;;;3.03;2.72;;;32.30;28.60;;;;;;5033424;28;20412;-83
2022/05/02 11:06:43;;;;;;;3.15;2.70;;;32.50;29.40;;;;;;5045455;28;20423;-84
2022/05/02 11:09:13;;;;;;;3.28;2.92;;;32.60;29.00;;;;;;5062927;28;20036;-83
2022/05/02 11:11:46;;;;;;;2.80;2.47;;;32.70;28.50;;;;;;5080746;28;20248;-83
2022/05/02 11:14:54;;;;;;;4.30;2.88;;;32.80;28.50;;;;;;5036395;28;20724;-83
2022/05/02 11:17:49;;;;;;;3.30;3.00;;;32.80;27.50;;;;;;5046936;28;20043;-84
2022/05/02 11:20:44;;;;;;;3.90;3.20;;;32.80;27.70;;;;;;5074364;28;20044;-82
2022/05/02 11:23:56;;;;;;;3.40;2.88;;;32.70;27.60;;;;;;5030825;28;20035;-82
2022/05/02 11:26:54;;;;;;;4.17;3.10;;;32.80;28.00;;;;;;5060228;28;20676;-83
2022/05/02 11:29:55;;;;;;;3.60;2.88;;;32.90;27.50;;;;;;5025639;28;20039;-82
2022/05/02 11:32:21;;;;;;;3.75;2.97;;;33.10;28.10;;;;;;5045945;28;20055;-83
2022/05/02 11:35:13;;;;;;;3.90;3.20;;;33.20;28.00;;;;;;5074733;28;20433;-82
2022/05/02 11:37:55;;;;;;;4.57;3.00;;;33.30;27.00;;;;;;5042980;28;20294;-83
2022/05/02 11:40:30;;;;;;;5.03;3.20;;;33.40;27.40;;;;;;5037267;28;20436;-83
2022/05/02 11:42:57;;;;;;;3.78;3.08;;;33.50;27.10;;;;;;5058782;28;20082;-83
2022/05/02 11:45:43;;;;;;;3.78;2.83;;;33.60;27.60;;;;;;5051210;28;20956;-84
2022/05/02 11:48:21;;;;;;;3.07;2.70;;;33.80;26.20;;;;;;5063765;28;20040;-84
2022/05/02 11:50:48;;;;;;;3.97;2.72;;;33.90;26.20;;;;;;5039283;28;20461;-83
2022/05/02 11:53:16;;;;;;;3.10;2.80;;;34.00;27.00;;;;;;5048336;28;20054;-84
2022/05/02 11:55:44;;;;;;;3.47;2.88;;;34.10;26.40;;;;;;5044615;28;20080;-84
2022/05/02 11:58:23;;;;;;;3.63;3.33;;;34.20;26.70;;;;;;5044460;28;20166;-83
2022/05/02 12:00:57;;;;;;;3.50;2.97;;;34.30;25.50;;;;;;5038931;28;20480;-84
2022/05/02 12:03:25;;;;;;;3.65;3.20;;;34.30;26.30;;;;;;5064907;28;20160;-84
2022/05/02 12:05:52;;;;;;;4.55;3.50;;;34.40;26.30;;;;;;5064895;28;20027;-83
2022/05/02 12:08:38;;;;;;;3.38;3.08;;;34.50;26.00;;;;;;5052124;28;20029;-83
2022/05/02 12:11:10;;;;;;;3.00;2.70;;;34.70;25.60;;;;;;5028912;28;20506;-83
2022/05/02 12:13:37;;;;;;;3.70;2.97;;;34.60;25.90;;;;;;5057984;28;20041;-83
2022/05/02 12:16:13;;;;;;;3.17;2.88;;;34.70;25.50;;;;;;5029288;28;20044;-83
2022/05/02 12:18:45;;;;;;;4.15;2.92;;;34.70;25.30;;;;;;5060180;28;20664;-83
2022/05/02 12:21:21;;;;;;;3.38;2.75;;;34.80;25.60;;;;;;5055812;28;20743;-83
2022/05/02 12:23:49;;;;;;;6.10;2.65;;;34.80;25.00;;;;;;5074509;28;20048;-83
2022/05/02 12:26:20;;;;;;;4.13;2.63;;;34.70;25.20;;;;;;5036493;28;20134;-83
2022/05/02 12:28:51;;;;;;;3.33;2.50;;;34.70;25.10;;;;;;5044681;28;20554;-83
2022/05/02 12:31:19;;;;;;;3.58;2.55;;;34.70;25.70;;;;;;5043800;28;20028;-82
2022/05/02 12:33:50;;;;;;;3.65;2.88;;;34.80;25.20;;;;;;5059945;28;20079;-83
2022/05/02 12:36:20;;;;;;;3.67;2.70;;;34.80;24.70;;;;;;5064797;28;20413;-84
2022/05/02 12:39:01;;;;;;;2.93;2.63;;;35.00;24.40;;;;;;5043739;28;20040;-84
2022/05/02 12:41:29;;;;;;;3.20;2.90;;;35.00;23.20;;;;;;5025105;28;20508;-83
2022/05/02 12:44:06;;;;;;;3.85;3.05;;;35.00;24.10;;;;;;5060968;28;20029;-84
2022/05/02 12:46:38;;;;;;;3.20;2.60;;;35.00;23.80;;;;;;5047763;28;20213;-83
2022/05/02 12:49:05;;;;;;;3.47;3.17;;;34.80;24.00;;;;;;5078352;28;20032;-85
2022/05/02 12:51:32;;;;;;;3.70;3.17;;;34.70;24.20;;;;;;5075283;28;20055;-83
2022/05/02 12:54:09;;;;;;;4.18;3.22;;;34.60;24.00;;;;;;5040901;28;20381;-83
2022/05/02 12:56:47;;;;;;;3.60;3.30;;;34.50;23.50;;;;;;5050510;28;20071;-84
2022/05/02 13:02:00;;;;;;;3.08;2.78;;;34.30;24.30;;;;;;5050336;28;20052;-84
2022/05/02 13:04:28;;;;;;;3.30;3.00;;;34.20;24.30;;;;;;5059896;28;20081;-83
2022/05/02 13:06:58;;;;;;;4.03;3.63;;;34.10;23.70;;;;;;5036709;28;20071;-82
2022/05/02 13:09:36;;;;;;;3.67;3.28;;;34.00;23.20;;;;;;5037574;28;20082;-83
2022/05/02 13:12:09;;;;;;;3.42;2.95;;;33.80;23.40;;;;;;5041683;28;20228;-85
2022/05/02 13:14:38;;;;;;;4.00;3.40;;;33.60;23.60;;;;;;5040901;28;20160;-83
2022/05/02 13:17:10;;;;;;;5.03;3.13;;;33.50;23.80;;;;;;5073552;28;20453;-84
2022/05/02 13:19:37;;;;;;;3.53;2.72;;;33.50;23.70;;;;;;5025270;28;20052;-83
2022/05/02 13:22:04;;;;;;;3.83;2.90;;;33.50;24.30;;;;;;5049698;28;20041;-83
2022/05/02 13:24:30;;;;;;;3.22;2.88;;;33.50;24.40;;;;;;5021330;28;20112;-83
2022/05/02 13:27:14;;;;;;;3.60;2.90;;;33.60;24.10;;;;;;5060281;28;20036;-83
2022/05/02 13:29:47;;;;;;;3.65;2.90;;;33.70;23.30;;;;;;5033768;28;20167;-83
2022/05/02 13:32:27;;;;;;;3.05;2.75;;;33.70;23.50;;;;;;5050703;28;20484;-83
2022/05/02 13:35:10;;;;;;;3.42;2.90;;;33.70;22.80;;;;;;5051495;28;20029;-83
2022/05/02 13:37:39;;;;;;;3.50;2.78;;;33.70;23.00;;;;;;5042885;28;20383;-83
2022/05/02 13:40:10;;;;;;;2.93;2.63;;;33.60;23.80;;;;;;5039986;28;20036;-83
2022/05/02 13:42:52;;;;;;;3.30;3.00;;;33.50;23.20;;;;;;5048719;28;20143;-84
2022/05/02 13:45:37;;;;;;;3.40;3.00;;;33.30;23.00;;;;;;5038364;28;20640;-83
2022/05/02 13:48:22;;;;;;;3.60;3.13;;;32.90;22.70;;;;;;5048123;28;20056;-84
2022/05/02 13:50:57;;;;;;;3.65;2.85;;;32.60;22.30;;;;;;5045009;28;20120;-84
2022/05/02 13:53:35;;;;;;;2.97;2.67;;;32.40;23.10;;;;;;5047635;28;20256;-84
2022/05/02 13:56:17;;;;;;;3.33;2.72;;;32.20;23.70;;;;;;5050698;28;20036;-83
2022/05/02 13:58:45;;;;;;;3.33;2.83;;;32.00;23.40;;;;;;5042114;28;20042;-83